Time;durP1;ratioP1;P1;durP2;ratioP2;P2;SDS_P1;SDS_P2;PMS_P1;PMS_P2;Temp;Humidity;BMP_temperature;BMP_pressure;BME280_temperature;BME280_humidity;BME280_pressure;Samples;Min_cycle;Max_cycle;Signal;HPM_P1;HPM_P2
2022/04/19 00:02:01;;;;;;;8.18;2.50;;;;;;;2.56;91.01;98129.44;4986351;28;20022;-84
2022/04/19 00:04:27;;;;;;;4.72;2.33;;;;;;;2.53;90.55;98124.22;4987391;28;20034;-84
2022/04/19 00:06:52;;;;;;;6.10;2.67;;;;;;;2.59;90.34;98122.50;4986365;28;20243;-84
2022/04/19 00:09:18;;;;;;;2.45;1.75;;;;;;;2.47;90.39;98117.28;4987181;28;20051;-84
2022/04/19 00:11:43;;;;;;;6.25;3.00;;;;;;;2.55;89.87;98114.69;4986228;28;20094;-84
2022/04/19 00:14:10;;;;;;;7.72;3.40;;;;;;;2.50;89.46;98096.47;4987348;28;20022;-84
2022/04/19 00:16:36;;;;;;;7.55;2.70;;;;;;;2.50;89.38;98096.47;4987164;28;20026;-84
2022/04/19 00:19:02;;;;;;;8.50;3.13;;;;;;;2.45;90.28;98095.63;4985873;28;20026;-84
2022/04/19 00:21:28;;;;;;;6.30;3.15;;;;;;;2.35;90.44;98093.84;4987017;28;20049;-84
2022/04/19 00:23:54;;;;;;;6.85;3.00;;;;;;;2.45;90.85;98093.03;4986086;28;20318;-84
2022/04/19 00:26:19;;;;;;;3.97;2.58;;;;;;;2.51;89.66;98098.25;4985910;28;20042;-84
2022/04/19 00:28:45;;;;;;;8.07;3.55;;;;;;;2.55;89.39;98092.19;4986882;28;20018;-84
2022/04/19 00:31:11;;;;;;;7.72;3.15;;;;;;;2.45;89.55;98092.13;4987012;28;20097;-84
2022/04/19 00:33:42;;;;;;;10.18;3.60;;;;;;;2.10;89.23;98084.22;4986851;28;20255;-84
2022/04/19 00:36:08;;;;;;;8.20;3.95;;;;;;;1.75;91.76;98080.56;4986906;28;20019;-84
2022/04/19 00:38:33;;;;;;;8.68;3.60;;;;;;;1.61;92.98;98071.81;4986880;28;20040;-84
2022/04/19 00:40:59;;;;;;;6.93;3.22;;;;;;;1.79;93.25;98078.00;4985611;28;20322;-84
2022/04/19 00:43:26;;;;;;;6.75;3.35;;;;;;;1.86;93.83;98078.88;4985631;28;20054;-84
2022/04/19 00:45:52;;;;;;;5.03;2.92;;;;;;;1.78;93.08;98071.03;4986618;28;20114;-84
2022/04/19 00:48:19;;;;;;;6.25;3.42;;;;;;;1.72;93.58;98064.97;4986742;28;20299;-83
2022/04/19 00:50:44;;;;;;;5.63;3.55;;;;;;;1.89;93.16;98073.72;4985515;28;20029;-83
2022/04/19 00:53:11;;;;;;;9.95;4.22;;;;;;;1.87;92.10;98060.72;4985513;28;20027;-83
2022/04/19 00:55:38;;;;;;;6.70;3.17;;;;;;;1.85;91.92;98066.78;4985237;28;20029;-83
2022/04/19 00:58:06;;;;;;;6.18;2.85;;;;;;;1.86;92.11;98064.19;4985287;28;20076;-83
2022/04/19 01:00:31;;;;;;;8.15;3.97;;;;;;;1.98;91.76;98055.59;4985223;28;20019;-83
2022/04/19 01:02:57;;;;;;;6.10;3.50;;;;;;;1.73;91.13;98052.00;4985144;28;20089;-83
2022/04/19 01:05:22;;;;;;;9.45;3.75;;;;;;;1.63;91.49;98051.94;4985226;28;20109;-83
2022/04/19 01:07:48;;;;;;;8.82;4.38;;;;;;;1.64;91.23;98058.84;4985076;28;20060;-83
2022/04/19 01:10:13;;;;;;;10.23;3.72;;;;;;;1.75;91.33;98054.63;4985128;28;20029;-83
2022/04/19 01:15:23;;;;;;;4.15;2.42;;;;;;;1.69;90.31;98057.16;4986262;28;20058;-83
2022/04/19 01:17:48;;;;;;;7.70;3.45;;;;;;;1.75;90.25;98059.81;4986007;28;20018;-83
2022/04/19 01:20:14;;;;;;;7.57;4.40;;;;;;;1.71;90.65;98068.44;4984618;28;20029;-83
2022/04/19 01:22:43;;;;;;;8.13;3.45;;;;;;;1.60;91.04;98062.28;4986015;28;20094;-83
2022/04/19 01:25:12;;;;;;;8.05;3.28;;;;;;;1.63;91.27;98070.09;4985648;28;20057;-83
2022/04/19 01:27:38;;;;;;;7.53;3.55;;;;;;;1.74;90.73;98064.13;4984870;28;20274;-83
2022/04/19 01:30:06;;;;;;;5.93;3.67;;;;;;;1.67;90.61;98051.09;4985858;28;20018;-83
2022/04/19 01:32:32;;;;;;;7.75;3.45;;;;;;;1.64;90.73;98061.44;4984787;28;20023;-83
2022/04/19 01:35:13;;;;;;;12.63;3.38;;;;;;;1.75;90.69;98065.00;4984607;28;20102;-83
2022/04/19 01:37:41;;;;;;;3.95;2.67;;;;;;;1.46;90.02;98061.34;4978396;28;20022;-83
2022/04/19 01:40:16;;;;;;;6.30;3.38;;;;;;;1.54;90.77;98070.91;4985722;28;20060;-83
2022/04/19 01:43:08;;;;;;;4.53;3.10;;;;;;;1.63;90.43;98070.09;4984471;28;20027;-83
2022/04/19 01:45:34;;;;;;;3.77;2.27;;;;;;;1.54;90.53;98059.66;4983237;28;20283;-83
2022/04/19 01:48:00;;;;;;;6.65;2.88;;;;;;;1.45;91.02;98057.00;4984833;28;20070;-83
2022/04/19 01:50:28;;;;;;;5.07;2.53;;;;;;;1.52;90.66;98061.41;4984349;28;20018;-83
2022/04/19 01:52:55;;;;;;;12.80;3.28;;;;;;;1.39;90.23;98065.59;4984380;28;20343;-83
2022/04/19 01:55:21;;;;;;;5.95;2.97;;;;;;;1.34;90.17;98056.94;4984336;28;20030;-83
2022/04/19 01:57:52;;;;;;;7.47;3.28;;;;;;;1.36;90.55;98052.63;4985303;28;20079;-83
2022/04/19 02:00:19;;;;;;;9.80;3.80;;;;;;;1.25;90.54;98063.78;4985366;28;20027;-83
2022/04/19 02:02:46;;;;;;;3.90;2.45;;;;;;;1.33;91.08;98054.34;4984011;28;20029;-83
2022/04/19 02:05:13;;;;;;;8.07;2.47;;;;;;;1.29;91.37;98053.44;4984100;28;20022;-83
2022/04/19 02:07:41;;;;;;;6.22;2.63;;;;;;;1.22;91.75;98050.78;4984203;28;20343;-83
2022/04/19 02:10:09;;;;;;;5.32;2.58;;;;;;;1.13;91.74;98051.59;4983980;28;20257;-83
2022/04/19 02:12:35;;;;;;;3.55;2.45;;;;;;;1.21;91.66;98055.13;4985202;28;20026;-83
2022/04/19 02:15:01;;;;;;;4.00;2.28;;;;;;;1.02;91.21;98047.16;4985130;28;20049;-83
2022/04/19 02:17:26;;;;;;;6.70;2.63;;;;;;;0.93;91.69;98047.09;4983863;28;20050;-83
2022/04/19 02:20:06;;;;;;;5.90;3.03;;;;;;;0.90;93.05;98041.88;4985020;28;20026;-83
2022/04/19 02:22:33;;;;;;;8.68;2.13;;;;;;;1.00;93.08;98041.09;4983628;28;20234;-83
2022/04/19 02:24:59;;;;;;;16.50;3.00;;;;;;;1.03;92.34;98044.59;4982904;28;20203;-83
2022/04/19 02:27:25;;;;;;;5.60;2.75;;;;;;;1.05;92.50;98042.03;4983919;28;20222;-83
2022/04/19 02:29:51;;;;;;;4.20;2.72;;;;;;;0.95;92.17;98041.06;4983850;28;20069;-83
2022/04/19 02:32:17;;;;;;;4.88;2.65;;;;;;;0.81;92.25;98037.50;4983600;28;20027;-83
2022/04/19 02:34:43;;;;;;;8.13;2.42;;;;;;;0.94;92.35;98049.69;4999861;28;20046;-83
2022/04/19 02:37:08;;;;;;;2.88;1.98;;;;;;;0.91;92.21;98041.00;4984882;28;20065;-83
2022/04/19 02:39:36;;;;;;;5.10;2.70;;;;;;;0.86;92.29;98038.41;4984704;28;20031;-83
2022/04/19 02:42:03;;;;;;;6.03;3.45;;;;;;;0.85;93.00;98043.59;4983319;28;20018;-83
2022/04/19 02:44:29;;;;;;;5.05;2.75;;;;;;;0.89;93.14;98040.16;4984479;28;20353;-83
2022/04/19 02:46:54;;;;;;;5.20;2.67;;;;;;;1.04;92.48;98045.47;4984778;28;20082;-83
2022/04/19 02:49:19;;;;;;;3.67;2.10;;;;;;;0.94;91.50;98043.63;4983605;28;20023;-83
2022/04/19 02:51:46;;;;;;;4.00;2.38;;;;;;;0.87;91.78;98042.72;4983738;28;20018;-83
2022/04/19 02:54:12;;;;;;;6.72;2.70;;;;;;;0.87;92.30;98031.50;4984654;28;20038;-83
2022/04/19 02:56:38;;;;;;;8.27;3.08;;;;;;;0.93;92.61;98034.13;4983110;28;20369;-83
2022/04/19 02:59:03;;;;;;;4.15;2.00;;;;;;;1.03;92.91;98034.22;4984609;28;20042;-83
2022/04/19 03:01:29;;;;;;;4.95;2.67;;;;;;;1.00;92.86;98034.22;4984432;28;20199;-83
2022/04/19 03:03:55;;;;;;;10.30;3.15;;;;;;;1.14;92.87;98031.72;4984619;28;20019;-83
2022/04/19 03:06:20;;;;;;;5.57;2.72;;;;;;;1.19;92.54;98032.63;4983410;28;20027;-83
2022/04/19 03:08:46;;;;;;;7.43;3.35;;;;;;;1.02;92.61;98026.44;4984480;28;20027;-83
2022/04/19 03:11:12;;;;;;;6.68;2.92;;;;;;;1.01;93.08;98024.72;4999664;28;20029;-83
2022/04/19 03:13:37;;;;;;;5.63;2.70;;;;;;;0.99;92.85;98027.31;4983409;28;20030;-83
2022/04/19 03:16:03;;;;;;;10.90;3.33;;;;;;;0.97;93.14;98025.53;4984221;28;20046;-83
2022/04/19 03:18:30;;;;;;;5.10;3.17;;;;;;;0.94;92.57;98031.56;4983311;28;20023;-83
2022/04/19 03:20:56;;;;;;;3.55;2.22;;;;;;;0.71;91.98;98014.06;4983228;28;20023;-83
2022/04/19 03:28:50;;;;;;;44.67;4.13;;;;;;;0.73;92.86;98017.56;4984427;28;20021;-83
2022/04/19 03:31:15;;;;;;;8.77;2.92;;;;;;;0.47;93.98;98019.03;4984281;28;20035;-83
2022/04/19 03:33:41;;;;;;;6.47;3.20;;;;;;;0.32;95.59;98018.88;4984385;28;20357;-83
2022/04/19 03:36:08;;;;;;;6.85;2.80;;;;;;;0.42;95.37;98016.41;4984569;28;20022;-83
2022/04/19 03:38:34;;;;;;;6.00;3.30;;;;;;;0.34;95.12;98005.09;4987828;28;20023;-85
2022/04/19 03:41:01;;;;;;;5.05;2.35;;;;;;;0.38;94.85;98017.19;4987976;28;20077;-85
2022/04/19 03:43:26;;;;;;;11.75;3.75;;;;;;;0.35;94.42;98014.59;4987842;28;20023;-85
2022/04/19 03:45:52;;;;;;;11.18;3.53;;;;;;;0.31;94.77;98009.38;4986734;28;20381;-85
2022/04/19 03:48:17;;;;;;;6.18;3.30;;;;;;;0.31;94.35;98017.16;4982109;28;20326;-86
2022/04/19 03:50:44;;;;;;;6.38;2.92;;;;;;;0.41;94.00;98014.63;4987624;28;20022;-87
2022/04/19 03:53:10;;;;;;;9.70;3.05;;;;;;;0.58;93.28;98014.81;4986755;28;20325;-85
2022/04/19 03:55:35;;;;;;;4.82;2.47;;;;;;;0.65;93.12;98014.03;4987527;28;20066;-87
2022/04/19 03:58:03;;;;;;;3.28;2.30;;;;;;;0.52;92.63;98012.16;4987664;28;20032;-86
2022/04/19 04:00:29;;;;;;;6.80;3.10;;;;;;;0.56;92.62;98013.94;4985879;28;20318;-85
2022/04/19 04:02:55;;;;;;;7.50;4.20;;;;;;;0.48;92.73;98010.41;4986646;28;20050;-85
2022/04/19 04:05:21;;;;;;;5.00;3.33;;;;;;;0.47;91.87;98006.94;4985029;28;20161;-86
2022/04/19 04:07:47;;;;;;;5.70;3.08;;;;;;;0.52;92.38;98017.34;4986300;28;20023;-85
2022/04/19 04:10:12;;;;;;;5.85;2.90;;;;;;;0.41;92.33;98013.81;4986572;28;20019;-85
2022/04/19 04:12:38;;;;;;;4.35;2.72;;;;;;;0.52;92.66;98018.22;4986560;28;20222;-85
2022/04/19 04:15:03;;;;;;;6.38;2.72;;;;;;;0.55;92.39;98017.38;4986469;28;20344;-85
2022/04/19 04:17:29;;;;;;;5.80;2.92;;;;;;;0.45;92.68;98015.56;4986483;28;20337;-85
2022/04/19 04:19:58;;;;;;;12.45;4.18;;;;;;;0.48;93.18;98015.59;4986368;28;20102;-85
2022/04/19 04:22:23;;;;;;;5.68;3.47;;;;;;;0.54;93.21;98020.84;4986200;28;20093;-85
2022/04/19 04:24:49;;;;;;;7.70;2.92;;;;;;;0.63;91.91;98020.94;4986108;28;20234;-85
2022/04/19 04:27:15;;;;;;;4.60;2.65;;;;;;;0.35;91.44;98021.50;4987435;28;20031;-85
2022/04/19 04:29:40;;;;;;;5.80;3.20;;;;;;;0.33;91.90;98025.78;4986227;28;20386;-85
2022/04/19 04:32:06;;;;;;;10.32;3.20;;;;;;;0.50;91.95;98030.28;4986219;28;20101;-85
2022/04/19 04:34:32;;;;;;;6.43;3.42;;;;;;;0.50;91.20;98029.44;4986145;28;20069;-85
2022/04/19 04:36:57;;;;;;;4.18;2.53;;;;;;;0.50;91.35;98030.28;4986128;28;20058;-85
2022/04/19 04:39:23;;;;;;;6.82;2.90;;;;;;;0.33;91.55;98025.78;4986018;28;20098;-85
2022/04/19 04:41:48;;;;;;;5.40;3.00;;;;;;;0.40;92.43;98022.38;4985979;28;20102;-85
2022/04/19 04:44:14;;;;;;;7.05;2.90;;;;;;;0.39;92.76;98025.84;4985974;28;20037;-85
2022/04/19 04:49:41;;;;;;;6.25;2.90;;;;;;;0.51;92.53;98026.84;4986604;28;20021;-85
2022/04/19 04:52:12;;;;;;;3.70;2.15;;;;;;;0.41;92.56;98018.97;4986206;28;20019;-85
2022/04/19 04:54:39;;;;;;;6.30;2.35;;;;;;;0.52;92.05;98030.28;4985775;28;20222;-85
2022/04/19 04:57:06;;;;;;;5.60;3.13;;;;;;;0.52;91.91;98022.53;4985767;28;20018;-85
2022/04/19 04:59:33;;;;;;;4.22;2.75;;;;;;;0.51;92.02;98025.97;4986736;28;20026;-85
2022/04/19 05:01:59;;;;;;;3.75;2.65;;;;;;;0.57;92.64;98028.63;4985626;28;20094;-85
2022/04/19 05:04:25;;;;;;;5.00;3.13;;;;;;;0.62;92.74;98024.34;4986736;28;20018;-85
2022/04/19 05:06:51;;;;;;;5.45;2.75;;;;;;;0.80;92.77;98030.59;4985518;28;20226;-85
2022/04/19 05:09:17;;;;;;;4.50;3.15;;;;;;;1.01;92.83;98035.09;4985474;28;20026;-85
2022/04/19 05:11:42;;;;;;;5.03;2.78;;;;;;;1.39;92.42;98050.06;4985722;28;20019;-85
2022/04/19 05:14:08;;;;;;;5.15;2.53;;;;;;;2.16;90.18;98053.94;4985385;28;20053;-85
2022/04/19 05:16:37;;;;;;;3.90;2.70;;;;;;;2.84;86.57;98056.75;4985388;28;20042;-85
2022/04/19 05:19:05;;;;;;;5.30;2.67;;;;;;;3.37;81.86;98060.25;4985213;28;20027;-85
2022/04/19 05:21:31;;;;;;;12.60;3.75;;;;;;;3.79;80.34;98059.31;4985210;28;20050;-85
2022/04/19 05:23:57;;;;;;;7.30;3.30;;;;;;;3.90;78.66;98053.22;4986360;28;20073;-85
2022/04/19 05:26:27;;;;;;;10.57;2.92;;;;;;;4.08;78.19;98053.16;4985094;28;20046;-85
2022/04/19 05:28:52;;;;;;;3.75;2.50;;;;;;;4.63;77.38;98063.38;4985154;28;20019;-85
2022/04/19 05:31:18;;;;;;;6.07;2.70;;;;;;;5.20;75.21;98073.44;4985059;28;20030;-85
2022/04/19 05:33:43;;;;;;;6.88;3.15;;;;;;;5.53;74.19;98068.81;4985066;28;20318;-85
2022/04/19 05:36:09;;;;;;;8.82;3.97;;;;;;;6.04;73.15;98070.97;4986104;28;20041;-85
2022/04/19 05:38:34;;;;;;;9.18;3.70;;;;;;;6.47;71.69;98071.34;4984867;28;20027;-85
2022/04/19 05:41:00;;;;;;;10.35;3.47;;;;;;;6.84;70.30;98076.97;4984866;28;20022;-85
2022/04/19 05:43:25;;;;;;;6.60;3.17;;;;;;;7.17;68.70;98082.59;4984871;28;20081;-85
2022/04/19 05:45:51;;;;;;;7.82;3.33;;;;;;;7.52;67.93;98085.53;4985997;28;20033;-85
2022/04/19 05:48:16;;;;;;;9.38;3.35;;;;;;;7.81;66.48;98090.25;4984782;28;20051;-85
2022/04/19 05:50:42;;;;;;;6.57;3.67;;;;;;;8.05;65.72;98090.72;4984717;28;20250;-85
2022/04/19 05:53:08;;;;;;;6.85;3.15;;;;;;;8.37;65.17;98091.03;4984709;28;20326;-85
2022/04/19 05:55:33;;;;;;;5.32;3.13;;;;;;;8.64;64.26;98093.06;4984672;28;20023;-85
2022/04/19 05:57:59;;;;;;;12.23;3.28;;;;;;;8.86;63.77;98090.03;4985719;28;20018;-85
2022/04/19 06:00:25;;;;;;;5.43;2.58;;;;;;;9.03;62.59;98093.13;4984846;28;20023;-85
2022/04/19 06:05:35;;;;;;;6.95;2.42;;;;;;;9.67;61.79;98098.63;4985659;28;20029;-85
2022/04/19 06:08:00;;;;;;;5.45;2.25;;;;;;;9.82;60.81;98095.63;4984438;28;20023;-85
2022/04/19 06:10:26;;;;;;;3.38;2.00;;;;;;;10.37;61.09;98103.84;4984459;28;20090;-85
2022/04/19 06:12:51;;;;;;;2.90;2.08;;;;;;;10.78;60.35;98104.44;4984366;28;20022;-86
2022/04/19 06:15:17;;;;;;;3.13;1.90;;;;;;;11.19;59.79;98111.13;4984382;28;20023;-86
2022/04/19 06:17:42;;;;;;;3.15;2.30;;;;;;;11.55;58.95;98109.97;4984302;28;20034;-86
2022/04/19 06:20:09;;;;;;;2.58;1.92;;;;;;;11.90;58.62;98107.09;4984168;28;20093;-86
2022/04/19 06:22:35;;;;;;;3.30;2.30;;;;;;;12.36;57.79;98117.84;4985271;28;20283;-86
2022/04/19 06:25:01;;;;;;;3.47;1.90;;;;;;;12.62;56.83;98115.16;4984053;28;20066;-86
2022/04/19 06:27:27;;;;;;;3.38;1.90;;;;;;;12.97;56.57;98116.50;4984167;28;20022;-86
2022/04/19 06:29:52;;;;;;;3.78;1.80;;;;;;;13.49;55.20;98121.59;4985249;28;20022;-86
2022/04/19 06:32:22;;;;;;;3.28;1.90;;;;;;;13.65;54.49;98119.19;4984111;28;20106;-86
2022/04/19 06:34:48;;;;;;;3.72;2.20;;;;;;;13.98;53.82;98117.84;4984063;28;20053;-86
2022/04/19 06:37:14;;;;;;;4.60;1.83;;;;;;;14.43;53.73;98129.19;4984059;28;20018;-86
2022/04/19 06:39:39;;;;;;;2.45;1.85;;;;;;;14.82;53.40;98122.16;4983944;28;20022;-86
2022/04/19 06:42:05;;;;;;;3.17;2.13;;;;;;;15.01;53.31;98138.97;4983984;28;20385;-86
2022/04/19 06:44:30;;;;;;;8.55;2.30;;;;;;;15.03;51.96;98126.50;4985112;28;20023;-86
2022/04/19 06:46:56;;;;;;;6.18;2.03;;;;;;;15.35;52.27;98127.69;4983924;28;20022;-86
2022/04/19 06:49:21;;;;;;;3.50;2.15;;;;;;;15.69;52.36;98133.19;4983931;28;20249;-86
2022/04/19 06:51:48;;;;;;;7.60;2.05;;;;;;;15.87;51.65;98132.28;4983863;28;20061;-86
2022/04/19 06:54:15;;;;;;;5.72;2.20;;;;;;;15.88;51.67;98129.53;4985001;28;20026;-86
2022/04/19 06:56:41;;;;;;;3.92;2.30;;;;;;;15.55;51.93;98120.56;4984970;28;20046;-86
2022/04/19 06:59:08;;;;;;;5.38;2.67;;;;;;;16.41;49.95;98125.09;4984893;28;20222;-86
2022/04/19 07:01:33;;;;;;;4.75;2.60;;;;;;;16.76;48.85;98125.97;4984907;28;20281;-86
2022/04/19 07:03:59;;;;;;;5.38;2.65;;;;;;;17.17;48.03;98133.50;4984906;28;20030;-86
2022/04/19 07:06:24;;;;;;;5.10;2.42;;;;;;;16.69;49.86;98125.47;4985206;28;20033;-86
2022/04/19 07:08:50;;;;;;;4.93;2.75;;;;;;;17.60;50.00;98136.53;4984878;28;20023;-86
2022/04/19 07:11:16;;;;;;;4.18;2.75;;;;;;;17.92;48.68;98139.13;4985398;28;20051;-86
2022/04/19 07:13:43;;;;;;;8.88;2.95;;;;;;;18.37;48.43;98128.53;4987615;28;20019;-86
2022/04/19 07:16:08;;;;;;;5.30;3.35;;;;;;;18.80;47.70;98134.84;4987566;28;20030;-86
2022/04/19 07:18:34;;;;;;;6.32;3.45;;;;;;;18.89;47.31;98137.78;4987426;28;20023;-86
2022/04/19 07:26:44;;;;;;;9.02;3.15;;;;;;;19.27;48.34;98138.19;4988422;28;20246;-87
2022/04/19 07:29:11;;;;;;;5.95;3.33;;;;;;;19.80;46.27;98134.81;4988473;28;20196;-87
2022/04/19 07:31:38;;;;;;;4.80;3.28;;;;;;;19.89;46.82;98136.84;4987341;28;20358;-87
2022/04/19 07:34:03;;;;;;;5.30;3.08;;;;;;;19.98;45.27;98133.59;4987217;28;20029;-87
2022/04/19 07:36:29;;;;;;;4.85;3.00;;;;;;;20.45;43.64;98142.94;4987620;28;20050;-87
2022/04/19 07:38:54;;;;;;;7.20;3.60;;;;;;;20.80;45.15;98146.75;4988293;28;20346;-87
2022/04/19 07:41:21;;;;;;;9.55;2.40;;;;;;;20.17;45.38;98132.34;4987158;28;20088;-87
2022/04/19 07:43:47;;;;;;;5.05;2.90;;;;;;;21.01;44.22;98139.97;4987438;28;20026;-87
2022/04/19 07:46:17;;;;;;;5.20;2.78;;;;;;;20.99;43.75;98136.56;4987109;28;20149;-87
2022/04/19 07:48:44;;;;;;;4.53;2.60;;;;;;;20.84;42.28;98123.31;4988111;28;20019;-87
2022/04/19 07:51:10;;;;;;;4.75;2.60;;;;;;;21.56;40.95;98141.44;4986964;28;20018;-87
2022/04/19 07:53:36;;;;;;;3.97;2.17;;;;;;;21.84;38.41;98134.06;4987224;28;20226;-87
2022/04/19 07:56:02;;;;;;;3.65;2.35;;;;;;;21.44;38.82;98136.97;4987998;28;20018;-87
2022/04/19 07:58:28;;;;;;;3.63;2.03;;;;;;;21.83;39.14;98131.50;4986839;28;20019;-87
2022/04/19 08:00:53;;;;;;;3.08;2.05;;;;;;;22.65;36.73;98140.53;4986686;28;20376;-87
2022/04/19 08:03:18;;;;;;;5.22;2.22;;;;;;;22.79;37.09;98132.28;4987910;28;20030;-87
2022/04/19 08:05:44;;;;;;;3.78;2.30;;;;;;;22.74;35.51;98129.06;4987845;28;20033;-87
2022/04/19 08:08:10;;;;;;;5.80;1.77;;;;;;;21.57;36.60;98114.56;4986687;28;20086;-87
2022/04/19 08:10:36;;;;;;;5.43;2.20;;;;;;;22.62;35.87;98124.66;4986568;28;20187;-87
2022/04/19 08:13:01;;;;;;;4.57;2.63;;;;;;;22.45;34.18;98116.97;4987752;28;20023;-87
2022/04/19 08:15:26;;;;;;;4.13;2.17;;;;;;;21.76;36.42;98106.13;4987658;28;20318;-87
2022/04/19 08:17:52;;;;;;;4.22;2.22;;;;;;;21.46;33.16;98103.78;4987598;28;20023;-87
2022/04/19 08:20:18;;;;;;;4.00;2.28;;;;;;;21.79;34.01;98100.50;4986879;28;20306;-87
2022/04/19 08:22:44;;;;;;;2.80;1.85;;;;;;;22.78;33.51;98125.22;4985651;28;20026;-87
2022/04/19 08:25:10;;;;;;;3.38;2.10;;;;;;;22.59;34.01;98114.16;4985944;28;20357;-87
2022/04/19 08:27:45;;;;;;;4.63;2.35;;;;;;;22.06;32.54;98095.81;4987457;28;20023;-87
2022/04/19 08:30:13;;;;;;;4.35;1.85;;;;;;;22.68;33.92;98113.44;4987416;28;20014;-87
2022/04/19 08:32:39;;;;;;;2.95;1.55;;;;;;;23.86;32.43;98121.94;4986271;28;20029;-87
2022/04/19 08:35:05;;;;;;;3.63;1.80;;;;;;;24.00;32.95;98116.31;4986195;28;20046;-87
2022/04/19 08:37:36;;;;;;;3.35;1.83;;;;;;;24.06;33.22;98112.28;4986114;28;20029;-87
2022/04/19 08:40:07;;;;;;;2.83;1.90;;;;;;;24.25;33.01;98104.41;4986017;28;20027;-87
2022/04/19 08:42:34;;;;;;;4.27;1.90;;;;;;;24.90;30.80;98115.91;4986034;28;20023;-87
2022/04/19 08:45:01;;;;;;;3.17;1.40;;;;;;;24.65;31.59;98106.34;4985973;28;20283;-87
2022/04/19 08:47:28;;;;;;;3.78;2.20;;;;;;;24.53;30.38;98107.38;4987069;28;20019;-87
2022/04/19 08:49:55;;;;;;;4.63;1.77;;;;;;;24.46;31.56;98103.47;4987002;28;20019;-87
2022/04/19 08:52:20;;;;;;;4.55;2.05;;;;;;;23.69;32.06;98097.41;4985888;28;20281;-87
2022/04/19 08:57:31;;;;;;;2.33;1.60;;;;;;;24.47;31.01;98101.63;4986973;28;20030;-87
2022/04/19 08:59:59;;;;;;;3.88;1.85;;;;;;;24.82;28.25;98102.25;4987066;28;20214;-87
2022/04/19 09:02:26;;;;;;;3.53;1.70;;;;;;;24.80;30.32;98105.06;4985713;28;20029;-87
2022/04/19 09:04:52;;;;;;;3.33;1.73;;;;;;;25.17;28.64;98109.03;4986834;28;20023;-87
2022/04/19 09:07:18;;;;;;;2.40;1.67;;;;;;;24.55;31.04;98094.63;4985899;28;20019;-87
2022/04/19 09:09:58;;;;;;;3.78;2.00;;;;;;;24.79;30.75;98097.97;4985510;28;20062;-87
2022/04/19 09:12:23;;;;;;;3.50;1.98;;;;;;;24.92;29.59;98089.69;4985460;28;20314;-87
2022/04/19 09:14:56;;;;;;;3.67;1.95;;;;;;;24.66;31.16;98085.69;4985480;28;20052;-87
2022/04/19 09:17:36;;;;;;;3.30;2.13;;;;;;;25.09;28.85;98094.50;4985394;28;20027;-87
2022/04/19 09:20:12;;;;;;;3.08;2.00;;;;;;;25.53;27.29;98090.66;4985647;28;20030;-87
2022/04/19 09:22:38;;;;;;;5.45;2.25;;;;;;;24.89;29.32;98076.50;4985602;28;20019;-87
2022/04/19 09:25:24;;;;;;;2.55;1.63;;;;;;;24.73;31.14;98071.59;4985107;28;20237;-87
2022/04/19 09:27:50;;;;;;;3.20;1.90;;;;;;;24.83;26.78;98071.63;4985201;28;20034;-87
2022/04/19 09:30:17;;;;;;;4.78;2.38;;;;;;;25.20;27.07;98081.81;4985244;28;20319;-87
2022/04/19 09:32:59;;;;;;;3.72;2.08;;;;;;;24.30;26.71;98067.22;4985110;28;20049;-87
2022/04/19 09:35:31;;;;;;;3.28;1.83;;;;;;;24.03;28.99;98065.00;4986083;28;20029;-87
2022/04/19 09:37:57;;;;;;;2.95;2.15;;;;;;;24.05;28.54;98057.66;4984988;28;20030;-87
2022/04/19 09:40:37;;;;;;;5.18;2.28;;;;;;;24.02;28.97;98051.66;4984879;28;20027;-87
2022/04/19 09:43:10;;;;;;;3.90;2.05;;;;;;;24.11;28.21;98051.75;4984888;28;20018;-87
2022/04/19 09:45:51;;;;;;;3.95;2.10;;;;;;;24.25;31.13;98056.84;4984902;28;20029;-87
2022/04/19 09:48:34;;;;;;;3.35;2.10;;;;;;;24.46;27.73;98046.13;4984791;28;20022;-87
2022/04/19 09:51:04;;;;;;;3.47;2.20;;;;;;;24.93;27.54;98057.25;4984841;28;20021;-87
2022/04/19 09:53:41;;;;;;;3.25;1.95;;;;;;;24.42;29.19;98037.44;4984705;28;20033;-87
2022/04/19 09:56:09;;;;;;;3.15;1.80;;;;;;;24.57;27.87;98044.22;4984967;28;20019;-87
2022/04/19 09:58:40;;;;;;;5.55;2.55;;;;;;;24.39;29.57;98035.03;4984653;28;20031;-87
2022/04/19 10:01:06;;;;;;;;;;;;;;;24.18;29.64;98042.22;4985308;28;20082;-87
2022/04/19 10:09:04;;;;;;;4.38;2.30;;;;;;;24.45;27.72;98031.81;4985642;28;20072;-87
2022/04/19 10:11:30;;;;;;;2.95;1.88;;;;;;;24.33;27.64;98024.78;4984412;28;20035;-87
2022/04/19 10:13:56;;;;;;;2.95;1.98;;;;;;;24.07;28.44;98027.97;4984406;28;20031;-87
2022/04/19 10:16:22;;;;;;;2.90;1.65;;;;;;;24.29;29.24;98023.34;4984621;28;20047;-87
2022/04/19 10:18:48;;;;;;;3.13;2.03;;;;;;;24.55;28.69;98030.03;4984266;28;20023;-87
2022/04/19 10:21:20;;;;;;;4.18;2.15;;;;;;;24.20;29.27;98013.34;4984260;28;20023;-87
2022/04/19 10:23:46;;;;;;;3.25;2.00;;;;;;;24.41;29.95;98022.31;4984238;28;20027;-87
2022/04/19 10:26:14;;;;;;;4.03;2.13;;;;;;;24.69;29.65;98021.69;4984053;28;20122;-87
2022/04/19 10:28:39;;;;;;;4.65;2.33;;;;;;;24.86;29.86;98017.53;4984204;28;20279;-87
2022/04/19 10:31:05;;;;;;;6.13;2.53;;;;;;;24.61;30.20;98013.38;4984196;28;20019;-87
2022/04/19 10:33:51;;;;;;;2.97;1.88;;;;;;;24.74;30.59;98014.06;4984111;28;20094;-87
2022/04/19 10:36:18;;;;;;;4.25;2.10;;;;;;;23.87;30.19;97997.31;4984075;28;20226;-87
2022/04/19 10:38:46;;;;;;;5.05;2.13;;;;;;;24.35;29.88;98017.44;4984006;28;20022;-87
2022/04/19 10:41:52;;;;;;;5.15;2.50;;;;;;;23.59;29.04;97999.69;4985105;28;20061;-87
2022/04/19 10:44:23;;;;;;;4.05;2.67;;;;;;;23.39;30.04;98004.00;4984057;28;20031;-87
2022/04/19 10:47:12;;;;;;;5.28;2.58;;;;;;;24.15;29.59;98004.81;4983529;28;20214;-87
2022/04/19 10:49:59;;;;;;;4.72;2.50;;;;;;;23.48;28.82;97995.22;4983941;28;20054;-87
2022/04/19 10:52:36;;;;;;;6.38;2.47;;;;;;;22.58;30.31;97994.41;4985115;28;20332;-87
2022/04/19 10:55:18;;;;;;;4.47;2.45;;;;;;;23.05;30.33;97999.59;4984984;28;20394;-87
2022/04/19 11:00:48;;;;;;;4.15;2.33;;;;;;;23.76;29.92;97997.31;4984913;28;20405;-87
2022/04/19 11:03:17;;;;;;;3.25;1.85;;;;;;;24.28;29.60;97999.25;4983825;28;20102;-87
2022/04/19 11:05:54;;;;;;;3.38;2.20;;;;;;;24.33;29.43;98003.25;4983796;28;20025;-87
2022/04/19 11:08:25;;;;;;;3.13;2.00;;;;;;;24.12;30.18;97993.47;4983741;28;20019;-87
2022/04/19 11:10:51;;;;;;;5.43;1.63;;;;;;;24.31;30.96;97994.47;4983719;28;20070;-87
2022/04/19 11:13:17;;;;;;;2.72;1.88;;;;;;;23.72;27.85;97990.50;4983683;28;20101;-87
2022/04/19 11:15:43;;;;;;;4.57;2.22;;;;;;;23.09;29.57;97982.25;4983681;28;20026;-87
2022/04/19 11:18:22;;;;;;;5.05;2.42;;;;;;;23.26;30.29;97987.19;4983707;28;20097;-87
2022/04/19 11:20:49;;;;;;;2.53;1.65;;;;;;;23.17;28.97;97983.38;4983638;28;20233;-87
2022/04/19 11:23:22;;;;;;;4.80;1.90;;;;;;;22.67;28.45;97977.59;4984735;28;20068;-87
2022/04/19 11:25:49;;;;;;;6.57;2.30;;;;;;;22.03;28.60;97970.09;4983501;28;20045;-87
2022/04/19 11:28:26;;;;;;;5.88;2.53;;;;;;;22.48;30.51;97966.56;4983622;28;20026;-87
2022/04/19 11:30:57;;;;;;;3.33;1.92;;;;;;;22.91;29.25;97970.31;4983610;28;20018;-87
2022/04/19 11:33:24;;;;;;;6.72;2.00;;;;;;;22.80;29.55;97979.22;4983596;28;20064;-87
2022/04/19 11:36:14;;;;;;;5.03;2.10;;;;;;;21.64;29.99;97951.63;4983550;28;20034;-87
2022/04/19 11:38:46;;;;;;;3.38;2.10;;;;;;;21.03;30.23;97944.53;4983510;28;20022;-87
2022/04/19 11:46:45;;;;;;;3.22;1.83;;;;;;;21.39;32.75;97946.34;4984620;28;20087;-87
2022/04/19 11:49:16;;;;;;;2.80;1.65;;;;;;;21.63;33.45;97931.13;4984537;28;20045;-87
2022/04/19 11:52:02;;;;;;;3.08;2.00;;;;;;;21.30;32.03;97938.00;4983421;28;20107;-87
2022/04/19 11:54:32;;;;;;;7.20;1.70;;;;;;;21.17;32.70;97934.53;4984533;28;20049;-87
2022/04/19 11:57:01;;;;;;;3.63;2.22;;;;;;;20.86;31.57;97937.69;4983303;28;20278;-86
2022/04/19 11:59:33;;;;;;;3.45;2.40;;;;;;;20.81;31.81;97944.31;4986540;28;20041;-86
2022/04/19 12:02:00;;;;;;;4.78;2.08;;;;;;;20.68;33.65;97933.63;4986801;28;20330;-87
2022/04/19 12:04:25;;;;;;;3.10;1.80;;;;;;;20.64;32.80;97937.50;4986785;28;20225;-87
2022/04/19 12:06:52;;;;;;;2.35;1.75;;;;;;;20.37;31.58;97939.41;4986706;28;20046;-87
2022/04/19 12:09:19;;;;;;;3.22;2.13;;;;;;;20.12;32.88;97923.34;4986681;28;20099;-87
2022/04/19 12:11:47;;;;;;;6.35;2.20;;;;;;;20.19;33.29;97924.66;4986608;28;20018;-87
2022/04/19 12:14:27;;;;;;;2.47;1.80;;;;;;;20.36;33.51;97931.50;4986500;28;20027;-87
2022/04/19 12:16:58;;;;;;;4.78;2.05;;;;;;;20.12;33.54;97926.03;4986553;28;20026;-87